METAR Data
IDs: Format: Raw Decoded Include TAF

Data at: 1638 UTC 24 Aug 2019

PAGK 241553Z AUTO 29003KT 10SM CLR 05/02 A2968 RMK AO2 SLP058 T00500017 TSNO
PAGK 241453Z AUTO 00000KT 10SM CLR 00/M02 A2966 RMK AO2 SLP055 T00001017 53010 TSNO
PAGK 241353Z AUTO 00000KT 10SM CLR 00/M01 A2965 RMK AO2 SLP048 T00001011 TSNO
PAGK 241253Z AUTO 00000KT 10SM CLR 01/M01 A2964 RMK AO2 SLP046 T00061011 TSNO
PAGK 241153Z AUTO 00000KT 10SM CLR 00/M02 A2963 RMK AO2 SLP042 T00001017 10122 20000 52013 TSNO
PAGK 241053Z AUTO 00000KT 10SM CLR 02/00 A2962 RMK AO2 SLP037 T00170000 TSNO
PAGK 240953Z AUTO 00000KT 10SM CLR 04/01 A2961 RMK AO2 SLP032 T00390011 TSNO
PAGK 240853Z AUTO 29003KT 10SM CLR 06/02 A2960 RMK AO2 SLP026 T00610017 401941011 51020 TSNO
PAGK 240753Z AUTO 31007KT 10SM CLR 09/02 A2958 RMK AO2 SLP019 T00890022 TSNO
PAGK 240653Z AUTO 31003KT 10SM BKN090 09/02 A2956 RMK SLP014 T00940022 TSNO VIA AUTODIAL
PAGK 240553Z AUTO 00000KT 10SM SCT090 BKN120 12/02 A2953 RMK SLP006 T01170022 10189 20106 53010 TSNO VIA AUTODIAL
PAGK 240453Z AUTO 33005KT 10SM CLR 13/02 A2952 RMK AO2 SLP004 T01280022 TSNO
PAGK 240353Z AUTO 00000KT 10SM FEW120 14/04 A2951 RMK AO2 SLP000 T01440039 TSNO
PAGK 240253Z AUTO 04006KT 10SM BKN075 BKN110 16/03 A2950 RMK AO2 SLP000 T01610033 53002 TSNO
PAGK 240153Z AUTO VRB05KT 10SM CLR 18/02 A2949 RMK AO2 SLP995 T01830017 TSNO
PAGK 240053Z AUTO 27003KT 10SM BKN095 17/02 A2950 RMK AO2 SLP998 T01670022 TSNO
PAGK 232353Z AUTO 36007KT 10SM BKN060 18/03 A2950 RMK AO2 SLP994 T01830028 10194 20089 56009 TSNO
PAGK 232253Z AUTO 10SM SCT060 18/03 A2951 RMK AO2 SLP994 T01830033 TSNO
PAGK 232153Z AUTO VRB06KT 10SM CLR 17/03 A2952 RMK AO2 SLP001 T01720033 TSNO
PAGK 232053Z AUTO VRB06KT 10SM CLR 16/04 A2953 RMK AO2 SLP003 T01610039 58009 TSNO
PAGK 231953Z AUTO 04006KT 10SM CLR 13/04 A2954 RMK SLP010 T01330039 TSNO VIA AUTODIAL
PAGK 231853Z AUTO 36006KT 10SM CLR 11/03 A2955 RMK AO2 SLP014 T01110033 TSNO
PAGK 231753Z AUTO VRB03KT 10SM CLR 09/03 A2956 RMK AO2 SLP015 T00940033 10094 21011 58001 TSNO
PAGK 231653Z AUTO 00000KT 9SM CLR 06/03 A2956 RMK AO2 SLP018 T00610033 TSNO
PAGK 231553Z AUTO 00000KT 8SM CLR 02/01 A2956 RMK AO2 SLP018 T00170006 TSNO
PAGK 231453Z AUTO 00000KT 8SM CLR M01/M02 A2956 RMK AO2 SLP019 T10111022 53004 TSNO
PAGK 231353Z AUTO 00000KT 8SM CLR M01/M01 A2955 RMK AO2 SLP015 T10061011 TSNO $
PAGK 231253Z AUTO 31003KT 9SM CLR 01/00 A2955 RMK SLP012 T00060000 TSNO $ VIA AUTODIAL
PAGK 231153Z AUTO 30005KT 10SM CLR 03/01 A2955 RMK SLP009 T00280011 10094 20028 58000 TSNO $ VIA AUTODIAL
PAGK 231053Z AUTO 34004KT 10SM CLR 04/02 A2955 RMK AO2 SLP009 T00440017 TSNO $
PAGK 230953Z AUTO 33004KT 10SM CLR 03/01 A2955 RMK AO2 SLP011 T00280011 TSNO
PAGK 230853Z AUTO 33004KT 10SM CLR 04/01 A2955 RMK AO2 SLP011 T00440011 401891011 55000 TSNO
PAGK 230753Z AUTO 35005KT 10SM CLR 06/02 A2954 RMK AO2 SLP010 T00560017 TSNO
PAGK 230653Z AUTO 35005KT 10SM CLR 08/02 A2954 RMK AO2 SLP009 T00780017 TSNO
PAGK 230553Z AUTO 35006KT 10SM CLR 09/02 A2955 RMK AO2 SLP012 T00940022 10189 20094 56005 TSNO
PAGK 230453Z AUTO 34005KT 8SM CLR 13/02 A2955 RMK AO2 SLP014 T01280017 TSNO